CheckWX is a tool to help pilots better visualize weather data.  It is not intended as a substitute for an official pre-flight weather briefing.

12:20:25 UTC

KRNV METAR
Cleveland Municipal Airport
Cleveland, Mississippi, USA
Current

25 mins ago

KRNV 181155Z AUTO 01009KT 10SM CLR 01/M02 A3027 RMK AO2 T00131020 10046 20013
Observed
Feb-18 @ 11:55 UTC
Wind
  • 010° at 9 KTS
Visibility
10 SM
Flight Rules
VFR
Cloud Levels
  • Clear skies
Temperature
C / 34°F
Dewpoint
-2°C / 28°F
Humidity
81%
Altimeter
30.27" Hg
Pressure
1025.02 hPa
Previous

45 mins ago

KRNV 181135Z AUTO 01010KT 10SM CLR 02/M02 A3026 RMK AO2 T00151022
Observed
Feb-18 @ 11:35 UTC
Wind
  • 010° at 10 KTS
Visibility
10 SM
Flight Rules
VFR
Cloud Levels
  • Clear skies
Temperature
C / 36°F
Dewpoint
-2°C / 28°F
Humidity
75%
Altimeter
30.26" Hg
Pressure
1024.72 hPa
Previous

1 hour ago

KRNV 181115Z AUTO 01012KT 10SM CLR 02/M02 A3026 RMK AO2 T00161021
Observed
Feb-18 @ 11:15 UTC
Wind
  • 010° at 12 KTS
Visibility
10 SM
Flight Rules
VFR
Cloud Levels
  • Clear skies
Temperature
C / 36°F
Dewpoint
-2°C / 28°F
Humidity
75%
Altimeter
30.26" Hg
Pressure
1024.72 hPa